Time;durP1;ratioP1;P1;durP2;ratioP2;P2;SDS_P1;SDS_P2;PMS_P1;PMS_P2;Temp;Humidity;BMP_temperature;BMP_pressure;BME280_temperature;BME280_humidity;BME280_pressure;Samples;Min_cycle;Max_cycle;Signal;HPM_P1;HPM_P2
2021/12/23 00:02:03;;;;;;;6.61;5.91;;;;;;;18.49;43.42;100854.58;;;;-63
2021/12/23 00:05:04;;;;;;;6.35;5.75;;;;;;;18.47;43.59;100846.34;;;;-53
2021/12/23 00:08:03;;;;;;;6.26;5.66;;;;;;;18.45;43.54;100841.73;;;;-53
2021/12/23 00:11:03;;;;;;;6.23;5.63;;;;;;;18.43;43.54;100847.01;;;;-52
2021/12/23 00:14:06;;;;;;;6.38;5.75;;;;;;;18.42;43.54;100839.75;;;;-52
2021/12/23 00:17:20;;;;;;;6.37;5.73;;;;;;;18.40;43.66;100830.70;;;;-52
2021/12/23 00:25:03;;;;;;;6.28;5.68;;;;;;;18.35;43.53;100821.80;;;;-53
2021/12/23 00:28:04;;;;;;;6.37;5.77;;;;;;;18.33;43.57;100817.95;;;;-53
2021/12/23 00:31:04;;;;;;;6.20;5.59;;;;;;;18.30;43.72;100813.94;;;;-52
2021/12/23 00:34:03;;;;;;;6.34;5.66;;;;;;;18.29;43.70;100815.84;;;;-64
2021/12/23 00:37:06;;;;;;;6.21;5.61;;;;;;;18.28;43.81;100813.58;;;;-63
2021/12/23 00:40:04;;;;;;;6.18;5.29;;;;;;;18.26;43.57;100807.21;;;;-63
2021/12/23 00:43:03;;;;;;;6.32;5.72;;;;;;;18.24;43.71;100806.04;;;;-64
2021/12/23 00:46:04;;;;;;;6.16;5.56;;;;;;;18.24;43.76;100799.20;;;;-64
2021/12/23 00:49:05;;;;;;;6.27;5.67;;;;;;;18.22;43.63;100796.56;;;;-64
2021/12/23 00:52:05;;;;;;;5.78;5.18;;;;;;;18.21;43.79;100795.67;;;;-64
2021/12/23 00:55:03;;;;;;;6.00;5.40;;;;;;;18.18;43.71;100784.44;;;;-64
2021/12/23 00:58:04;;;;;;;5.95;5.21;;;;;;;18.17;43.66;100773.38;;;;-63
2021/12/23 01:01:03;;;;;;;6.05;5.45;;;;;;;18.15;43.88;100769.69;;;;-64
2021/12/23 01:04:03;;;;;;;6.34;5.45;;;;;;;18.13;43.84;100764.47;;;;-64
2021/12/23 01:07:04;;;;;;;7.17;5.50;;;;;;;18.13;43.86;100772.58;;;;-63
2021/12/23 01:10:03;;;;;;;6.53;5.57;;;;;;;18.11;43.67;100778.46;;;;-64
2021/12/23 01:13:05;;;;;;;6.03;5.44;;;;;;;18.10;43.69;100779.19;;;;-54
2021/12/23 01:16:06;;;;;;;5.75;5.15;;;;;;;18.09;43.79;100772.50;;;;-54
2021/12/23 01:19:11;;;;;;;5.58;5.08;;;;;;;18.07;43.80;100770.31;;;;-54
2021/12/23 01:22:04;;;;;;;5.89;5.33;;;;;;;18.06;43.72;100772.14;;;;-54
2021/12/23 01:25:03;;;;;;;5.63;5.11;;;;;;;18.04;43.72;100774.79;;;;-54
2021/12/23 01:28:03;;;;;;;5.59;5.01;;;;;;;18.04;43.91;100775.59;;;;-54
2021/12/23 01:31:03;;;;;;;5.89;5.33;;;;;;;18.02;43.97;100774.10;;;;-54
2021/12/23 01:34:03;;;;;;;5.75;5.14;;;;;;;18.00;43.86;100777.31;;;;-56
2021/12/23 01:37:03;;;;;;;5.64;5.09;;;;;;;17.97;43.64;100777.19;;;;-55
2021/12/23 01:40:03;;;;;;;5.58;5.08;;;;;;;17.96;43.85;100775.21;;;;-54
2021/12/23 01:43:04;;;;;;;5.34;4.84;;;;;;;17.95;43.75;100760.83;;;;-53
2021/12/23 01:46:04;;;;;;;5.89;5.29;;;;;;;17.94;43.84;100765.77;;;;-52
2021/12/23 01:49:03;;;;;;;5.84;5.26;;;;;;;17.93;43.90;100764.62;;;;-52
2021/12/23 01:52:03;;;;;;;6.87;5.12;;;;;;;17.91;43.86;100761.02;;;;-52
2021/12/23 01:55:03;;;;;;;5.73;5.18;;;;;;;17.90;43.76;100763.10;;;;-52
2021/12/23 01:58:03;;;;;;;5.72;5.11;;;;;;;17.89;43.79;100765.69;;;;-52
2021/12/23 02:01:04;;;;;;;5.73;5.16;;;;;;;17.88;44.02;100761.20;;;;-52
2021/12/23 02:04:03;;;;;;;5.59;4.99;;;;;;;17.86;44.02;100761.25;;;;-52
2021/12/23 02:07:03;;;;;;;5.55;4.96;;;;;;;17.85;43.77;100753.62;;;;-52
2021/12/23 02:10:03;;;;;;;5.59;5.09;;;;;;;17.83;43.89;100746.77;;;;-52
2021/12/23 02:13:03;;;;;;;5.36;4.86;;;;;;;17.82;44.06;100741.92;;;;-53
2021/12/23 02:16:04;;;;;;;5.48;4.97;;;;;;;17.81;43.85;100737.22;;;;-52
2021/12/23 02:19:03;;;;;;;5.73;5.13;;;;;;;17.78;43.80;100729.45;;;;-52
2021/12/23 02:22:04;;;;;;;5.36;4.86;;;;;;;17.77;43.86;100727.42;;;;-52
2021/12/23 02:25:03;;;;;;;5.55;5.05;;;;;;;17.77;44.08;100718.83;;;;-51
2021/12/23 02:28:07;;;;;;;5.47;4.97;;;;;;;17.76;44.06;100706.48;;;;-51
2021/12/23 02:31:03;;;;;;;5.34;4.84;;;;;;;17.75;44.07;100694.48;;;;-52
2021/12/23 02:34:03;;;;;;;5.64;5.12;;;;;;;17.74;44.08;100683.26;;;;-54
2021/12/23 02:37:03;;;;;;;4.80;4.35;;;;;;;17.72;44.05;100672.80;;;;-52
2021/12/23 02:40:04;;;;;;;5.29;4.79;;;;;;;17.71;44.03;100676.81;;;;-52
2021/12/23 02:43:03;;;;;;;5.43;4.70;;;;;;;17.71;44.04;100687.59;;;;-53
2021/12/23 02:46:03;;;;;;;5.84;4.73;;;;;;;17.70;43.99;100686.38;;;;-52
2021/12/23 02:49:03;;;;;;;5.44;4.85;;;;;;;17.70;44.08;100685.45;;;;-52
2021/12/23 02:52:03;;;;;;;5.44;4.93;;;;;;;17.68;44.12;100692.58;;;;-52
2021/12/23 02:55:03;;;;;;;5.15;4.71;;;;;;;17.66;44.14;100692.06;;;;-52
2021/12/23 02:58:03;;;;;;;5.33;4.82;;;;;;;17.65;43.79;100675.58;;;;-52
2021/12/23 03:01:03;;;;;;;5.27;4.75;;;;;;;17.64;44.05;100675.05;;;;-52
2021/12/23 03:04:03;;;;;;;5.35;4.85;;;;;;;17.63;43.92;100668.16;;;;-51
2021/12/23 03:07:03;;;;;;;5.21;4.71;;;;;;;17.62;44.01;100665.41;;;;-51
2021/12/23 03:10:03;;;;;;;5.05;4.56;;;;;;;17.62;43.93;100671.78;;;;-52
2021/12/23 03:13:03;;;;;;;5.33;4.83;;;;;;;17.62;44.10;100672.42;;;;-53
2021/12/23 03:16:03;;;;;;;5.33;4.83;;;;;;;17.60;44.07;100662.78;;;;-52
2021/12/23 03:19:04;;;;;;;5.15;4.65;;;;;;;17.57;43.97;100664.90;;;;-53
2021/12/23 03:22:03;;;;;;;5.25;4.75;;;;;;;17.57;43.97;100656.55;;;;-53
2021/12/23 03:25:03;;;;;;;5.39;4.89;;;;;;;17.56;44.00;100671.45;;;;-53
2021/12/23 03:28:03;;;;;;;5.29;4.79;;;;;;;17.56;44.08;100671.70;;;;-52
2021/12/23 03:31:03;;;;;;;5.33;4.83;;;;;;;17.55;43.85;100662.02;;;;-52
2021/12/23 03:34:03;;;;;;;5.19;4.69;;;;;;;17.55;43.96;100658.13;;;;-54
2021/12/23 03:37:03;;;;;;;5.17;4.67;;;;;;;17.55;44.14;100663.08;;;;-54
2021/12/23 03:40:03;;;;;;;5.29;4.79;;;;;;;17.54;43.96;100664.61;;;;-54
2021/12/23 03:43:03;;;;;;;5.25;4.75;;;;;;;17.54;44.12;100650.03;;;;-54
2021/12/23 03:46:04;;;;;;;5.35;4.85;;;;;;;17.52;44.11;100651.45;;;;-54
2021/12/23 03:49:03;;;;;;;5.17;4.67;;;;;;;17.51;44.09;100645.34;;;;-54
2021/12/23 03:52:03;;;;;;;5.27;4.77;;;;;;;17.51;44.11;100634.24;;;;-54
2021/12/23 03:55:03;;;;;;;5.00;4.50;;;;;;;17.50;44.05;100617.80;;;;-54
2021/12/23 03:58:03;;;;;;;5.10;4.64;;;;;;;17.50;44.11;100609.77;;;;-54
2021/12/23 04:01:03;;;;;;;5.51;5.01;;;;;;;17.47;44.08;100610.22;;;;-53
2021/12/23 04:04:03;;;;;;;5.31;4.81;;;;;;;17.48;44.00;100607.39;;;;-51
2021/12/23 04:07:03;;;;;;;5.09;4.59;;;;;;;17.48;44.07;100606.50;;;;-51
2021/12/23 04:10:03;;;;;;;5.34;4.84;;;;;;;17.47;44.07;100606.95;;;;-51
2021/12/23 04:13:03;;;;;;;5.37;4.87;;;;;;;17.47;44.08;100605.16;;;;-58
2021/12/23 04:16:03;;;;;;;5.31;4.81;;;;;;;17.45;44.04;100607.19;;;;-58
2021/12/23 04:19:06;;;;;;;5.07;4.57;;;;;;;17.45;44.13;100604.73;;;;-58
2021/12/23 04:22:03;;;;;;;5.39;4.89;;;;;;;17.45;44.01;100601.08;;;;-58
2021/12/23 04:25:03;;;;;;;5.16;4.66;;;;;;;17.43;44.10;100597.32;;;;-58
2021/12/23 04:28:05;;;;;;;5.19;4.69;;;;;;;17.42;44.08;100594.32;;;;-58
2021/12/23 04:31:05;;;;;;;5.26;4.81;;;;;;;17.41;44.08;100592.66;;;;-57
2021/12/23 04:34:03;;;;;;;5.18;4.68;;;;;;;17.39;44.11;100587.72;;;;-58
2021/12/23 04:37:03;;;;;;;5.25;4.73;;;;;;;17.38;44.05;100578.21;;;;-58
2021/12/23 04:40:06;;;;;;;5.55;4.75;;;;;;;17.38;44.11;100577.72;;;;-59
2021/12/23 04:43:03;;;;;;;5.25;4.75;;;;;;;17.39;44.05;100582.50;;;;-59
2021/12/23 04:46:03;;;;;;;5.18;4.68;;;;;;;17.37;44.07;100577.08;;;;-58
2021/12/23 04:49:03;;;;;;;5.67;4.58;;;;;;;17.36;43.98;100575.09;;;;-52
2021/12/23 04:52:03;;;;;;;4.81;4.41;;;;;;;17.35;44.00;100575.02;;;;-53
2021/12/23 04:55:03;;;;;;;4.87;4.45;;;;;;;17.34;44.03;100573.20;;;;-52
2021/12/23 04:58:03;;;;;;;5.31;4.81;;;;;;;17.34;44.09;100576.77;;;;-52
2021/12/23 05:01:06;;;;;;;5.07;4.57;;;;;;;17.33;44.03;100575.92;;;;-52
2021/12/23 05:04:04;;;;;;;5.30;4.80;;;;;;;17.32;44.05;100570.41;;;;-52
2021/12/23 05:07:03;;;;;;;5.29;4.79;;;;;;;17.31;44.06;100566.28;;;;-53
2021/12/23 05:10:03;;;;;;;5.10;4.60;;;;;;;17.31;44.02;100559.39;;;;-54
2021/12/23 05:13:04;;;;;;;5.26;4.76;;;;;;;17.30;44.02;100547.53;;;;-55
2021/12/23 05:16:03;;;;;;;5.29;4.79;;;;;;;17.29;44.02;100549.96;;;;-55
2021/12/23 05:19:03;;;;;;;5.22;4.72;;;;;;;17.28;44.02;100547.91;;;;-64
2021/12/23 05:22:03;;;;;;;5.35;4.85;;;;;;;17.27;44.00;100548.06;;;;-64
2021/12/23 05:25:03;;;;;;;5.14;4.64;;;;;;;17.25;44.05;100537.42;;;;-64
2021/12/23 05:28:03;;;;;;;5.57;5.07;;;;;;;17.25;43.97;100529.48;;;;-52
2021/12/23 05:31:03;;;;;;;5.25;4.75;;;;;;;17.25;44.03;100532.80;;;;-53
2021/12/23 05:34:03;;;;;;;5.14;4.64;;;;;;;17.24;43.97;100523.54;;;;-53
2021/12/23 05:37:03;;;;;;;5.27;4.77;;;;;;;17.23;44.02;100523.53;;;;-54
2021/12/23 05:40:03;;;;;;;5.05;4.55;;;;;;;17.21;44.06;100527.15;;;;-54
2021/12/23 05:43:03;;;;;;;5.11;4.61;;;;;;;17.20;44.04;100542.50;;;;-52
2021/12/23 05:46:03;;;;;;;5.17;4.67;;;;;;;17.17;43.93;100550.08;;;;-53
2021/12/23 05:49:03;;;;;;;4.96;4.46;;;;;;;17.16;44.03;100552.59;;;;-52
2021/12/23 05:52:03;;;;;;;4.59;4.19;;;;;;;17.17;43.97;100544.33;;;;-52
2021/12/23 05:55:04;;;;;;;5.01;4.51;;;;;;;17.17;44.10;100538.25;;;;-54
2021/12/23 05:58:03;;;;;;;4.74;4.34;;;;;;;17.17;44.25;100544.81;;;;-53
2021/12/23 06:01:03;;;;;;;4.73;4.33;;;;;;;17.19;44.09;100543.88;;;;-64
2021/12/23 06:04:03;;;;;;;4.55;4.15;;;;;;;17.20;44.09;100539.59;;;;-52
2021/12/23 06:07:03;;;;;;;4.50;4.10;;;;;;;17.22;44.09;100535.66;;;;-52
2021/12/23 06:10:03;;;;;;;4.53;4.13;;;;;;;17.23;44.11;100533.83;;;;-54
2021/12/23 06:13:03;;;;;;;4.97;4.47;;;;;;;17.25;44.39;100538.07;;;;-60
2021/12/23 06:16:03;;;;;;;4.73;4.24;;;;;;;17.27;44.58;100538.43;;;;-59
2021/12/23 06:19:03;;;;;;;4.75;4.31;;;;;;;17.29;44.73;100542.19;;;;-63
2021/12/23 06:22:03;;;;;;;4.52;4.12;;;;;;;17.31;44.79;100532.91;;;;-53
2021/12/23 06:25:03;;;;;;;4.79;4.28;;;;;;;17.32;44.78;100529.83;;;;-53
2021/12/23 06:28:03;;;;;;;4.68;4.28;;;;;;;17.34;44.70;100521.69;;;;-52
2021/12/23 06:31:03;;;;;;;4.83;4.29;;;;;;;17.35;44.91;100511.91;;;;-54
2021/12/23 06:34:03;;;;;;;4.50;4.10;;;;;;;17.36;44.93;100512.89;;;;-54
2021/12/23 06:37:04;;;;;;;4.56;4.16;;;;;;;17.39;44.89;100516.08;;;;-52
2021/12/23 06:40:03;;;;;;;4.46;4.06;;;;;;;17.40;44.69;100518.63;;;;-54
2021/12/23 06:43:03;;;;;;;4.38;3.98;;;;;;;17.41;44.96;100511.50;;;;-59
2021/12/23 06:46:03;;;;;;;4.45;4.05;;;;;;;17.41;44.56;100497.80;;;;-59
2021/12/23 06:49:03;;;;;;;4.37;3.91;;;;;;;17.42;44.84;100491.03;;;;-63
2021/12/23 06:52:03;;;;;;;4.31;3.91;;;;;;;17.43;44.83;100485.92;;;;-64
2021/12/23 06:55:03;;;;;;;4.68;4.27;;;;;;;17.44;44.62;100480.94;;;;-63
2021/12/23 06:58:04;;;;;;;4.47;4.07;;;;;;;17.44;44.73;100475.83;;;;-63
2021/12/23 07:01:03;;;;;;;4.81;4.32;;;;;;;17.44;44.60;100482.07;;;;-63
2021/12/23 07:04:14;;;;;;;4.62;4.17;;;;;;;17.44;44.39;100480.05;;;;-64
2021/12/23 07:07:10;;;;;;;4.92;4.41;;;;;;;17.44;44.45;100480.77;;;;-64
2021/12/23 07:10:03;;;;;;;4.45;4.05;;;;;;;17.45;44.49;100488.80;;;;-63
2021/12/23 07:13:03;;;;;;;4.54;4.14;;;;;;;17.45;44.48;100486.45;;;;-59
2021/12/23 07:16:03;;;;;;;4.50;4.10;;;;;;;17.44;44.21;100468.78;;;;-59
2021/12/23 07:19:03;;;;;;;4.55;4.15;;;;;;;17.45;44.37;100474.05;;;;-59
2021/12/23 07:22:03;;;;;;;4.37;3.97;;;;;;;17.44;44.23;100472.02;;;;-59
2021/12/23 07:25:03;;;;;;;8.28;6.99;;;;;;;17.35;42.54;100475.55;;;;-53
2021/12/23 07:28:03;;;;;;;10.35;8.96;;;;;;;17.21;41.25;100472.89;;;;-54
2021/12/23 07:31:03;;;;;;;11.31;10.12;;;;;;;17.13;40.62;100491.05;;;;-63
2021/12/23 07:34:03;;;;;;;13.50;11.09;;;;;;;17.04;40.11;100485.82;;;;-64
2021/12/23 07:37:03;;;;;;;15.60;12.49;;;;;;;16.92;39.59;100486.09;;;;-63
2021/12/23 07:40:03;;;;;;;15.54;13.17;;;;;;;16.84;38.89;100487.73;;;;-59
2021/12/23 07:43:31;;;;;;;14.55;12.22;;;;;;;16.90;39.94;100486.62;;;;-59
2021/12/23 07:46:03;;;;;;;12.39;10.66;;;;;;;16.94;40.65;100470.34;;;;-59
2021/12/23 07:49:03;;;;;;;10.85;9.67;;;;;;;16.98;41.18;100463.20;;;;-64
2021/12/23 07:52:03;;;;;;;10.93;9.67;;;;;;;17.01;41.32;100463.57;;;;-64
2021/12/23 07:55:03;;;;;;;12.21;9.82;;;;;;;17.03;41.65;100462.14;;;;-63
2021/12/23 07:58:03;;;;;;;10.23;8.93;;;;;;;17.04;41.75;100455.86;;;;-64
2021/12/23 08:01:03;;;;;;;9.47;8.47;;;;;;;17.05;41.79;100460.97;;;;-54
2021/12/23 08:04:03;;;;;;;9.64;8.15;;;;;;;17.05;41.98;100450.68;;;;-54
2021/12/23 08:07:03;;;;;;;9.44;7.80;;;;;;;17.06;42.11;100451.52;;;;-64
2021/12/23 08:10:03;;;;;;;8.55;7.65;;;;;;;17.06;42.15;100453.06;;;;-64
2021/12/23 08:13:04;;;;;;;8.43;7.41;;;;;;;17.06;42.23;100466.98;;;;-52
2021/12/23 08:16:03;;;;;;;10.31;7.63;;;;;;;17.07;42.39;100455.98;;;;-53
2021/12/23 08:19:04;;;;;;;7.63;6.83;;;;;;;17.10;42.44;100452.00;;;;-63
2021/12/23 08:22:03;;;;;;;11.33;6.51;;;;;;;17.13;42.44;100447.81;;;;-58
2021/12/23 08:25:03;;;;;;;7.56;6.79;;;;;;;17.15;42.74;100443.72;;;;-60
2021/12/23 08:28:03;;;;;;;8.47;6.63;;;;;;;17.20;42.75;100451.56;;;;-64
2021/12/23 08:31:03;;;;;;;7.75;6.37;;;;;;;17.21;42.86;100448.76;;;;-60
2021/12/23 08:34:03;;;;;;;7.77;6.41;;;;;;;17.23;43.02;100451.46;;;;-60
2021/12/23 08:37:06;;;;;;;6.62;5.91;;;;;;;17.26;42.96;100444.37;;;;-57
2021/12/23 08:40:03;;;;;;;7.20;5.81;;;;;;;17.29;42.98;100432.77;;;;-54
2021/12/23 08:43:04;;;;;;;12.15;5.77;;;;;;;17.32;42.96;100421.22;;;;-58
2021/12/23 08:46:03;;;;;;;8.51;5.89;;;;;;;17.34;42.70;100429.83;;;;-58
2021/12/23 08:49:03;;;;;;;8.39;6.09;;;;;;;17.36;42.53;100422.41;;;;-55
2021/12/23 08:52:03;;;;;;;7.99;5.78;;;;;;;17.38;42.52;100416.69;;;;-53
2021/12/23 08:55:03;;;;;;;8.35;5.92;;;;;;;17.43;43.39;100420.98;;;;-49
2021/12/23 08:58:04;;;;;;;9.23;5.76;;;;;;;17.51;43.33;100429.82;;;;-57
2021/12/23 09:01:03;;;;;;;11.98;5.58;;;;;;;17.56;43.82;100428.94;;;;-58
2021/12/23 09:04:03;;;;;;;11.21;5.25;;;;;;;17.61;44.38;100437.02;;;;-58
2021/12/23 09:07:03;;;;;;;20.81;5.76;;;;;;;17.66;45.10;100433.86;;;;-59
2021/12/23 09:10:03;;;;;;;11.22;5.33;;;;;;;17.71;44.89;100429.86;;;;-61
2021/12/23 09:13:03;;;;;;;18.99;5.58;;;;;;;17.76;44.56;100432.10;;;;-59
2021/12/23 09:16:03;;;;;;;10.19;5.25;;;;;;;17.79;44.61;100429.48;;;;-59
2021/12/23 09:19:03;;;;;;;10.69;5.20;;;;;;;17.84;44.72;100424.62;;;;-66
2021/12/23 09:22:03;;;;;;;10.70;5.15;;;;;;;17.90;44.60;100417.97;;;;-63
2021/12/23 09:25:10;;;;;;;8.11;5.03;;;;;;;17.91;44.25;100411.34;;;;-64
2021/12/23 09:28:12;;;;;;;6.23;4.71;;;;;;;17.95;44.21;100408.61;;;;-60
2021/12/23 09:34:04;;;;;;;7.27;4.79;;;;;;;17.97;44.04;100417.06;;;;-60
2021/12/23 09:37:03;;;;;;;5.38;4.36;;;;;;;17.98;44.08;100416.93;;;;-60
2021/12/23 09:40:04;;;;;;;5.99;4.66;;;;;;;18.00;44.08;100412.09;;;;-57
2021/12/23 09:43:03;;;;;;;8.08;4.51;;;;;;;18.02;44.06;100413.09;;;;-58
2021/12/23 09:46:03;;;;;;;6.88;4.51;;;;;;;18.03;44.07;100409.27;;;;-57
2021/12/23 09:49:03;;;;;;;5.24;4.36;;;;;;;18.05;44.03;100408.48;;;;-57
2021/12/23 09:52:03;;;;;;;7.15;4.50;;;;;;;18.07;44.06;100416.62;;;;-67
2021/12/23 09:55:03;;;;;;;6.48;4.40;;;;;;;18.08;44.05;100417.05;;;;-66
2021/12/23 09:58:03;;;;;;;6.70;4.07;;;;;;;18.09;44.02;100418.10;;;;-66
2021/12/23 10:01:03;;;;;;;5.07;4.43;;;;;;;18.11;44.08;100417.23;;;;-67
2021/12/23 10:04:03;;;;;;;6.27;4.39;;;;;;;18.13;44.06;100413.94;;;;-66
2021/12/23 10:07:03;;;;;;;5.06;4.05;;;;;;;18.14;44.05;100418.02;;;;-67
2021/12/23 10:10:10;;;;;;;6.46;4.53;;;;;;;18.14;44.01;100403.34;;;;-67
2021/12/23 10:29:58;;;;;;;5.28;4.39;;;;;;;18.19;43.97;100365.41;;;;-64
2021/12/23 10:31:08;;;;;;;6.84;3.87;;;;;;;18.22;43.99;100360.08;;;;-63
2021/12/23 10:37:06;;;;;;;4.50;4.09;;;;;;;18.24;44.24;100357.38;;;;-66
2021/12/23 10:38:03;;;;;;;6.67;4.05;;;;;;;18.28;44.33;100354.30;;;;-64
2021/12/23 10:41:03;;;;;;;4.73;3.73;;;;;;;18.30;44.28;100351.67;;;;-61
2021/12/23 10:44:03;;;;;;;4.93;3.95;;;;;;;18.34;44.34;100346.58;;;;-60
2021/12/23 10:47:03;;;;;;;5.39;3.90;;;;;;;18.38;44.36;100351.48;;;;-67
2021/12/23 10:50:03;;;;;;;4.42;4.02;;;;;;;18.44;44.52;100349.19;;;;-61
2021/12/23 10:53:06;;;;;;;4.38;3.98;;;;;;;18.47;44.46;100337.05;;;;-62
2021/12/23 10:59:04;;;;;;;4.67;3.88;;;;;;;18.54;44.42;100334.42;;;;-64
2021/12/23 11:02:04;;;;;;;5.24;4.01;;;;;;;18.58;44.54;100322.84;;;;-65
2021/12/23 11:05:12;;;;;;;6.27;3.95;;;;;;;18.63;44.43;100327.42;;;;-60
2021/12/23 11:08:10;;;;;;;7.11;4.63;;;;;;;18.61;43.78;100318.89;;;;-60
2021/12/23 11:37:11;;;;;;;4.73;4.26;;;;;;;18.87;43.82;100249.20;;;;-55
2021/12/23 11:40:24;;;;;;;5.13;4.25;;;;;;;18.90;43.90;100260.58;;;;-64
2021/12/23 11:43:25;;;;;;;4.51;4.11;;;;;;;18.91;43.87;100264.98;;;;-62
2021/12/23 11:46:03;;;;;;;5.91;4.09;;;;;;;18.94;43.90;100245.91;;;;-62
2021/12/23 11:49:07;;;;;;;4.47;4.05;;;;;;;18.96;43.93;100224.39;;;;-52
2021/12/23 11:52:03;;;;;;;4.99;4.02;;;;;;;18.99;44.12;100222.55;;;;-52
2021/12/23 11:55:03;;;;;;;4.21;3.81;;;;;;;19.02;44.00;100219.96;;;;-64
2021/12/23 11:58:03;;;;;;;4.39;3.85;;;;;;;19.05;43.96;100213.55;;;;-52
2021/12/23 12:01:03;;;;;;;4.18;3.76;;;;;;;19.07;44.05;100216.16;;;;-61
2021/12/23 12:04:03;;;;;;;5.62;4.01;;;;;;;19.11;44.06;100210.56;;;;-61
2021/12/23 12:07:03;;;;;;;5.19;3.62;;;;;;;19.12;44.01;100208.97;;;;-61
2021/12/23 12:10:03;;;;;;;4.07;3.35;;;;;;;19.11;44.04;100206.28;;;;-60
2021/12/23 12:13:03;;;;;;;4.40;3.99;;;;;;;19.12;43.98;100201.64;;;;-61
2021/12/23 12:16:03;;;;;;;3.99;3.59;;;;;;;19.12;44.02;100194.42;;;;-61
2021/12/23 12:19:03;;;;;;;4.26;3.66;;;;;;;19.12;44.04;100192.47;;;;-61
2021/12/23 12:22:03;;;;;;;4.71;3.66;;;;;;;19.13;44.03;100181.44;;;;-60
2021/12/23 12:25:03;;;;;;;4.18;3.51;;;;;;;19.13;44.00;100172.99;;;;-61
2021/12/23 12:28:03;;;;;;;4.55;3.78;;;;;;;19.15;44.01;100159.09;;;;-61
2021/12/23 12:31:05;;;;;;;4.07;3.65;;;;;;;19.15;44.02;100165.34;;;;-61
2021/12/23 12:34:05;;;;;;;4.17;3.69;;;;;;;19.16;44.05;100166.82;;;;-61
2021/12/23 12:37:03;;;;;;;3.98;3.41;;;;;;;19.17;44.04;100167.70;;;;-61
2021/12/23 12:40:03;;;;;;;3.61;3.31;;;;;;;19.18;44.05;100164.63;;;;-59
2021/12/23 12:43:03;;;;;;;4.43;3.49;;;;;;;19.19;44.03;100162.27;;;;-60
2021/12/23 12:46:03;;;;;;;3.85;3.45;;;;;;;19.21;43.99;100157.41;;;;-60
2021/12/23 12:49:09;;;;;;;4.23;3.75;;;;;;;19.22;44.05;100155.47;;;;-61
2021/12/23 12:52:03;;;;;;;3.80;3.40;;;;;;;19.25;43.96;100150.34;;;;-60
2021/12/23 12:55:04;;;;;;;7.88;4.20;;;;;;;19.26;43.61;100152.14;;;;-59
2021/12/23 12:58:04;;;;;;;15.43;4.56;;;;;;;19.33;44.05;100149.72;;;;-58
2021/12/23 13:01:03;;;;;;;6.37;3.89;;;;;;;19.39;44.66;100149.31;;;;-51
2021/12/23 13:04:04;;;;;;;7.61;3.85;;;;;;;19.49;44.37;100148.69;;;;-60
2021/12/23 13:07:03;;;;;;;9.01;4.25;;;;;;;19.46;44.03;100149.42;;;;-66
2021/12/23 13:10:06;;;;;;;4.83;3.64;;;;;;;19.46;44.01;100155.41;;;;-66
2021/12/23 13:13:04;;;;;;;7.26;3.78;;;;;;;19.47;44.02;100155.19;;;;-64
2021/12/23 13:16:03;;;;;;;4.58;3.62;;;;;;;19.48;44.02;100146.31;;;;-62
2021/12/23 13:19:03;;;;;;;5.91;3.57;;;;;;;19.49;44.02;100138.20;;;;-62
2021/12/23 13:22:03;;;;;;;4.31;3.46;;;;;;;19.49;44.03;100130.97;;;;-62
2021/12/23 13:25:03;;;;;;;4.17;3.36;;;;;;;19.52;44.12;100123.25;;;;-60
2021/12/23 13:28:07;;;;;;;4.51;3.90;;;;;;;19.53;44.15;100122.84;;;;-60
2021/12/23 13:31:03;;;;;;;6.23;3.53;;;;;;;19.55;44.25;100117.08;;;;-59
2021/12/23 13:34:03;;;;;;;4.74;3.82;;;;;;;19.57;44.27;100099.13;;;;-61
2021/12/23 13:37:06;;;;;;;6.23;3.66;;;;;;;19.61;44.31;100104.81;;;;-58
2021/12/23 13:40:03;;;;;;;5.63;3.94;;;;;;;19.63;44.18;100095.84;;;;-62
2021/12/23 13:43:03;;;;;;;4.30;3.85;;;;;;;19.66;44.23;100100.81;;;;-58
2021/12/23 13:46:03;;;;;;;6.07;4.28;;;;;;;19.61;43.69;100100.34;;;;-57
2021/12/23 13:49:03;;;;;;;4.71;3.77;;;;;;;19.61;43.92;100111.86;;;;-57
2021/12/23 13:52:03;;;;;;;6.79;3.73;;;;;;;19.60;43.92;100119.91;;;;-58
2021/12/23 13:55:03;;;;;;;5.29;3.75;;;;;;;19.59;43.95;100112.94;;;;-56
2021/12/23 13:58:10;;;;;;;3.69;3.33;;;;;;;19.59;43.94;100094.65;;;;-56
2021/12/23 14:01:03;;;;;;;6.95;3.88;;;;;;;19.62;44.17;100092.03;;;;-68
2021/12/23 14:04:03;;;;;;;4.85;3.76;;;;;;;19.65;44.13;100083.75;;;;-65
2021/12/23 14:07:03;;;;;;;4.90;3.51;;;;;;;19.68;44.04;100074.95;;;;-57
2021/12/23 14:10:03;;;;;;;3.93;3.46;;;;;;;19.70;44.13;100077.02;;;;-57
2021/12/23 14:13:03;;;;;;;6.17;3.86;;;;;;;19.74;44.14;100078.81;;;;-57
2021/12/23 14:16:03;;;;;;;4.13;3.55;;;;;;;19.75;44.30;100078.48;;;;-54
2021/12/23 14:19:21;;;;;;;3.93;3.51;;;;;;;19.77;44.31;100066.69;;;;-51
2021/12/23 14:25:03;;;;;;;5.63;3.37;;;;;;;19.77;44.26;100060.75;;;;-55
2021/12/23 14:28:03;;;;;;;3.83;3.34;;;;;;;19.77;44.30;100059.53;;;;-52
2021/12/23 14:31:03;;;;;;;4.36;3.61;;;;;;;19.80;44.57;100055.31;;;;-52
2021/12/23 14:34:03;;;;;;;3.71;3.31;;;;;;;19.81;44.56;100043.59;;;;-61
2021/12/23 14:37:03;;;;;;;3.57;3.25;;;;;;;19.82;44.46;100050.11;;;;-66
2021/12/23 14:40:03;;;;;;;5.92;3.65;;;;;;;19.81;44.35;100049.94;;;;-57
2021/12/23 14:43:03;;;;;;;4.14;3.54;;;;;;;19.82;44.48;100043.69;;;;-54
2021/12/23 14:46:03;;;;;;;4.68;3.27;;;;;;;19.82;44.41;100041.55;;;;-62
2021/12/23 14:49:24;;;;;;;3.63;3.30;;;;;;;19.82;44.33;100040.84;;;;-54
2021/12/23 14:52:03;;;;;;;3.57;3.27;;;;;;;19.84;44.41;100040.50;;;;-56
2021/12/23 14:55:03;;;;;;;4.05;3.59;;;;;;;19.85;44.37;100040.09;;;;-53
2021/12/23 14:58:03;;;;;;;4.62;3.27;;;;;;;19.87;44.43;100039.19;;;;-56
2021/12/23 15:01:03;;;;;;;5.00;4.14;;;;;;;19.88;43.74;100035.22;;;;-59
2021/12/23 15:04:03;;;;;;;5.65;3.98;;;;;;;19.87;43.91;100028.70;;;;-60
2021/12/23 15:07:04;;;;;;;4.53;3.48;;;;;;;19.86;44.05;100032.70;;;;-64
2021/12/23 15:10:03;;;;;;;4.63;3.61;;;;;;;19.86;44.02;100025.92;;;;-63
2021/12/23 15:13:03;;;;;;;3.90;3.50;;;;;;;19.85;44.10;100017.66;;;;-63
2021/12/23 15:16:03;;;;;;;4.67;3.60;;;;;;;19.84;44.16;100014.81;;;;-64
2021/12/23 15:19:15;;;;;;;4.73;3.55;;;;;;;19.84;44.23;100013.41;;;;-63
2021/12/23 15:22:03;;;;;;;3.62;3.29;;;;;;;19.85;44.14;100000.58;;;;-59
2021/12/23 15:25:05;;;;;;;5.05;3.47;;;;;;;19.88;44.41;99993.34;;;;-58
2021/12/23 15:28:03;;;;;;;4.00;3.60;;;;;;;19.90;44.26;99984.72;;;;-58
2021/12/23 15:31:03;;;;;;;4.02;3.62;;;;;;;19.94;44.12;99984.84;;;;-60
2021/12/23 15:34:07;;;;;;;3.93;3.53;;;;;;;19.96;44.22;99974.58;;;;-59
2021/12/23 15:37:03;;;;;;;5.07;3.81;;;;;;;19.99;44.28;99975.72;;;;-57
2021/12/23 15:40:03;;;;;;;4.07;3.41;;;;;;;20.01;44.28;99974.67;;;;-58
2021/12/23 15:43:03;;;;;;;4.97;3.73;;;;;;;20.04;44.25;99970.17;;;;-59
2021/12/23 15:46:03;;;;;;;3.97;3.57;;;;;;;20.05;44.25;99965.29;;;;-56
2021/12/23 15:49:03;;;;;;;4.98;3.63;;;;;;;20.08;44.24;99957.72;;;;-60
2021/12/23 15:52:03;;;;;;;4.47;3.83;;;;;;;20.12;44.36;99952.74;;;;-52
2021/12/23 15:55:03;;;;;;;7.69;5.31;;;;;;;20.09;43.46;99953.66;;;;-56
2021/12/23 15:58:04;;;;;;;12.32;4.38;;;;;;;20.12;44.10;99964.20;;;;-58
2021/12/23 16:01:03;;;;;;;6.37;4.01;;;;;;;20.12;44.07;99950.78;;;;-52
2021/12/23 16:04:03;;;;;;;7.72;5.38;;;;;;;20.03;42.05;99938.55;;;;-61
2021/12/23 16:07:21;;;;;;;5.61;4.43;;;;;;;20.08;43.48;99932.09;;;;-59
2021/12/23 16:10:03;;;;;;;4.99;3.96;;;;;;;20.09;43.70;99934.13;;;;-63
2021/12/23 16:13:03;;;;;;;4.66;4.15;;;;;;;20.13;43.66;99936.12;;;;-58
2021/12/23 16:16:03;;;;;;;6.91;4.24;;;;;;;20.14;43.93;99929.78;;;;-53
2021/12/23 16:19:03;;;;;;;5.67;4.29;;;;;;;20.18;43.95;99925.62;;;;-54
2021/12/23 16:22:03;;;;;;;5.79;4.25;;;;;;;20.22;43.84;99917.95;;;;-60
2021/12/23 16:25:03;;;;;;;5.57;4.31;;;;;;;20.22;43.92;99904.86;;;;-56
2021/12/23 16:28:03;;;;;;;4.90;4.16;;;;;;;20.21;43.91;99906.38;;;;-57
2021/12/23 16:31:03;;;;;;;5.12;3.83;;;;;;;20.21;44.00;99900.04;;;;-60
2021/12/23 16:34:03;;;;;;;6.23;4.19;;;;;;;20.21;44.02;99897.70;;;;-59
2021/12/23 16:37:03;;;;;;;4.34;3.94;;;;;;;20.21;43.82;99892.64;;;;-51
2021/12/23 16:40:03;;;;;;;5.98;4.07;;;;;;;20.23;44.11;99896.45;;;;-61
2021/12/23 16:43:03;;;;;;;5.44;4.09;;;;;;;20.24;44.06;99901.67;;;;-51
2021/12/23 16:46:03;;;;;;;14.13;5.21;;;;;;;20.25;43.59;99912.30;;;;-50
2021/12/23 16:49:03;;;;;;;6.67;5.00;;;;;;;20.26;43.55;99921.58;;;;-56
2021/12/23 16:52:03;;;;;;;7.31;4.61;;;;;;;20.27;43.66;99923.88;;;;-54
2021/12/23 16:55:12;;;;;;;6.97;4.31;;;;;;;20.28;43.81;99932.64;;;;-58
2021/12/23 16:58:03;;;;;;;6.11;4.38;;;;;;;20.32;43.87;99930.03;;;;-61
2021/12/23 17:01:03;;;;;;;5.16;4.07;;;;;;;20.34;43.90;99927.98;;;;-57
2021/12/23 17:04:03;;;;;;;5.38;4.00;;;;;;;20.36;44.00;99927.97;;;;-63
2021/12/23 17:07:03;;;;;;;4.67;3.97;;;;;;;20.38;43.96;99936.58;;;;-56
2021/12/23 17:10:03;;;;;;;6.79;4.01;;;;;;;20.41;43.95;99933.13;;;;-50
2021/12/23 17:13:03;;;;;;;5.91;3.92;;;;;;;20.43;44.08;99932.31;;;;-58
2021/12/23 17:16:08;;;;;;;5.30;4.02;;;;;;;20.44;44.08;99936.14;;;;-51
2021/12/23 17:19:10;;;;;;;5.12;3.83;;;;;;;20.45;44.09;99938.48;;;;-50
2021/12/23 17:22:03;;;;;;;6.55;4.19;;;;;;;20.48;44.04;99930.72;;;;-51
2021/12/23 17:25:03;;;;;;;4.81;3.88;;;;;;;20.46;43.96;99918.87;;;;-59
2021/12/23 17:28:03;;;;;;;8.36;4.18;;;;;;;20.49;44.03;99922.98;;;;-50
2021/12/23 17:31:03;;;;;;;10.03;4.86;;;;;;;20.47;43.60;99919.01;;;;-61
2021/12/23 17:34:03;;;;;;;7.17;4.49;;;;;;;20.49;43.60;99920.56;;;;-55
2021/12/23 17:37:04;;;;;;;6.68;4.66;;;;;;;20.49;43.56;99917.87;;;;-65
2021/12/23 17:40:03;;;;;;;7.54;5.05;;;;;;;20.48;43.35;99910.64;;;;-52